sensor_id;sensor_type;location;lat;lon;timestamp;temperature;humidity
8824;DHT22;4448;50.904;4.694;2023-02-19T00:01:40;11.20;99.90
8824;DHT22;4448;50.904;4.694;2023-02-19T00:04:15;11.20;99.90
8824;DHT22;4448;50.904;4.694;2023-02-19T00:06:42;11.20;99.90
8824;DHT22;4448;50.904;4.694;2023-02-19T00:09:14;11.20;99.90
8824;DHT22;4448;50.904;4.694;2023-02-19T00:11:41;11.10;99.90
8824;DHT22;4448;50.904;4.694;2023-02-19T00:14:08;11.10;99.90
8824;DHT22;4448;50.904;4.694;2023-02-19T00:16:38;11.10;99.90
8824;DHT22;4448;50.904;4.694;2023-02-19T00:19:07;11.10;99.90
8824;DHT22;4448;50.904;4.694;2023-02-19T00:21:33;11.20;99.90
8824;DHT22;4448;50.904;4.694;2023-02-19T00:24:01;11.10;99.90
8824;DHT22;4448;50.904;4.694;2023-02-19T00:26:28;11.10;99.90
8824;DHT22;4448;50.904;4.694;2023-02-19T00:28:55;11.10;99.90
8824;DHT22;4448;50.904;4.694;2023-02-19T00:31:29;11.10;99.90
8824;DHT22;4448;50.904;4.694;2023-02-19T00:33:58;11.10;99.90
8824;DHT22;4448;50.904;4.694;2023-02-19T00:36:26;11.10;99.90
8824;DHT22;4448;50.904;4.694;2023-02-19T00:38:52;11.10;99.90
8824;DHT22;4448;50.904;4.694;2023-02-19T00:41:19;11.10;99.90
8824;DHT22;4448;50.904;4.694;2023-02-19T00:44:03;11.10;99.90
8824;DHT22;4448;50.904;4.694;2023-02-19T00:46:55;11.10;99.90
8824;DHT22;4448;50.904;4.694;2023-02-19T00:49:22;11.10;99.90
8824;DHT22;4448;50.904;4.694;2023-02-19T00:51:49;11.10;99.90
8824;DHT22;4448;50.904;4.694;2023-02-19T00:54:17;11.10;99.90
8824;DHT22;4448;50.904;4.694;2023-02-19T00:56:42;11.10;99.90
8824;DHT22;4448;50.904;4.694;2023-02-19T00:59:08;11.10;99.90
8824;DHT22;4448;50.904;4.694;2023-02-19T01:01:34;11.10;99.90
8824;DHT22;4448;50.904;4.694;2023-02-19T01:04:00;11.10;99.90
8824;DHT22;4448;50.904;4.694;2023-02-19T01:06:26;11.10;99.90
8824;DHT22;4448;50.904;4.694;2023-02-19T01:08:54;11.00;99.90
8824;DHT22;4448;50.904;4.694;2023-02-19T01:11:20;11.00;99.90
8824;DHT22;4448;50.904;4.694;2023-02-19T01:13:46;11.00;99.90
8824;DHT22;4448;50.904;4.694;2023-02-19T01:16:18;11.00;99.90
8824;DHT22;4448;50.904;4.694;2023-02-19T01:18:45;11.00;99.90
8824;DHT22;4448;50.904;4.694;2023-02-19T01:21:14;11.00;99.90
8824;DHT22;4448;50.904;4.694;2023-02-19T01:23:40;11.00;99.90
8824;DHT22;4448;50.904;4.694;2023-02-19T01:26:07;11.00;99.90
8824;DHT22;4448;50.904;4.694;2023-02-19T01:28:34;11.00;99.90
8824;DHT22;4448;50.904;4.694;2023-02-19T01:31:04;11.00;99.90
8824;DHT22;4448;50.904;4.694;2023-02-19T01:33:31;11.00;99.90
8824;DHT22;4448;50.904;4.694;2023-02-19T01:35:57;11.00;99.90
8824;DHT22;4448;50.904;4.694;2023-02-19T01:38:23;11.00;99.90
8824;DHT22;4448;50.904;4.694;2023-02-19T01:41:00;11.00;99.90
8824;DHT22;4448;50.904;4.694;2023-02-19T01:43:26;11.00;99.90
8824;DHT22;4448;50.904;4.694;2023-02-19T01:45:52;11.00;99.90
8824;DHT22;4448;50.904;4.694;2023-02-19T01:48:37;11.00;99.90
8824;DHT22;4448;50.904;4.694;2023-02-19T01:51:12;11.00;99.90
8824;DHT22;4448;50.904;4.694;2023-02-19T01:53:42;11.00;99.90
8824;DHT22;4448;50.904;4.694;2023-02-19T01:56:11;11.00;99.90
8824;DHT22;4448;50.904;4.694;2023-02-19T01:58:38;11.00;99.90
8824;DHT22;4448;50.904;4.694;2023-02-19T02:01:06;10.90;99.90
8824;DHT22;4448;50.904;4.694;2023-02-19T02:03:34;10.90;99.90
8824;DHT22;4448;50.904;4.694;2023-02-19T02:06:06;10.90;99.90
8824;DHT22;4448;50.904;4.694;2023-02-19T02:08:33;10.90;99.90
8824;DHT22;4448;50.904;4.694;2023-02-19T02:11:18;10.90;99.90
8824;DHT22;4448;50.904;4.694;2023-02-19T02:13:45;10.90;99.90
8824;DHT22;4448;50.904;4.694;2023-02-19T02:27:28;10.90;99.90
8824;DHT22;4448;50.904;4.694;2023-02-19T02:33:14;10.90;99.90
8824;DHT22;4448;50.904;4.694;2023-02-19T02:38:27;10.80;99.90
8824;DHT22;4448;50.904;4.694;2023-02-19T02:40:54;10.80;99.90
8824;DHT22;4448;50.904;4.694;2023-02-19T02:43:21;10.80;99.90
8824;DHT22;4448;50.904;4.694;2023-02-19T02:45:47;10.80;99.90
8824;DHT22;4448;50.904;4.694;2023-02-19T02:48:23;10.80;99.90
8824;DHT22;4448;50.904;4.694;2023-02-19T02:54:14;10.80;99.90
8824;DHT22;4448;50.904;4.694;2023-02-19T02:57:00;10.80;99.90
8824;DHT22;4448;50.904;4.694;2023-02-19T02:59:30;10.80;99.90
8824;DHT22;4448;50.904;4.694;2023-02-19T03:02:01;10.80;99.90
8824;DHT22;4448;50.904;4.694;2023-02-19T03:07:36;10.80;99.90
8824;DHT22;4448;50.904;4.694;2023-02-19T03:10:06;10.80;99.90
8824;DHT22;4448;50.904;4.694;2023-02-19T03:12:34;10.80;99.90
8824;DHT22;4448;50.904;4.694;2023-02-19T03:15:37;10.80;99.90
8824;DHT22;4448;50.904;4.694;2023-02-19T03:18:26;10.80;99.90
8824;DHT22;4448;50.904;4.694;2023-02-19T03:21:11;10.80;99.90
8824;DHT22;4448;50.904;4.694;2023-02-19T03:23:38;10.70;99.90
8824;DHT22;4448;50.904;4.694;2023-02-19T03:26:24;10.80;99.90
8824;DHT22;4448;50.904;4.694;2023-02-19T03:28:51;10.80;99.90
8824;DHT22;4448;50.904;4.694;2023-02-19T03:31:37;10.80;99.90
8824;DHT22;4448;50.904;4.694;2023-02-19T03:34:09;10.70;99.90
8824;DHT22;4448;50.904;4.694;2023-02-19T03:36:41;10.80;99.90
8824;DHT22;4448;50.904;4.694;2023-02-19T03:39:10;10.70;99.90
8824;DHT22;4448;50.904;4.694;2023-02-19T03:42:01;10.70;99.90
8824;DHT22;4448;50.904;4.694;2023-02-19T03:47:31;10.70;99.90
8824;DHT22;4448;50.904;4.694;2023-02-19T03:55:34;10.70;99.90
8824;DHT22;4448;50.904;4.694;2023-02-19T03:58:27;10.70;99.90
8824;DHT22;4448;50.904;4.694;2023-02-19T04:01:12;10.70;99.90
8824;DHT22;4448;50.904;4.694;2023-02-19T04:03:47;10.70;99.90
8824;DHT22;4448;50.904;4.694;2023-02-19T04:06:35;10.80;99.90
8824;DHT22;4448;50.904;4.694;2023-02-19T04:09:05;10.80;99.90
8824;DHT22;4448;50.904;4.694;2023-02-19T04:11:32;10.70;99.90
8824;DHT22;4448;50.904;4.694;2023-02-19T04:14:41;10.70;99.90
8824;DHT22;4448;50.904;4.694;2023-02-19T04:17:02;10.70;99.90
8824;DHT22;4448;50.904;4.694;2023-02-19T04:19:32;10.70;99.90
8824;DHT22;4448;50.904;4.694;2023-02-19T04:22:00;10.70;99.90
8824;DHT22;4448;50.904;4.694;2023-02-19T04:24:36;10.80;99.90
8824;DHT22;4448;50.904;4.694;2023-02-19T04:27:04;10.80;99.90
8824;DHT22;4448;50.904;4.694;2023-02-19T04:29:30;10.80;99.90
8824;DHT22;4448;50.904;4.694;2023-02-19T04:31:56;10.80;99.90
8824;DHT22;4448;50.904;4.694;2023-02-19T04:34:21;10.80;99.90
8824;DHT22;4448;50.904;4.694;2023-02-19T04:36:47;10.80;99.90
8824;DHT22;4448;50.904;4.694;2023-02-19T04:39:12;10.80;99.90
8824;DHT22;4448;50.904;4.694;2023-02-19T04:41:40;10.80;99.90
8824;DHT22;4448;50.904;4.694;2023-02-19T04:44:05;10.80;99.90
8824;DHT22;4448;50.904;4.694;2023-02-19T04:46:31;10.80;99.90
8824;DHT22;4448;50.904;4.694;2023-02-19T04:48:57;10.80;99.90
8824;DHT22;4448;50.904;4.694;2023-02-19T04:51:22;10.80;99.90
8824;DHT22;4448;50.904;4.694;2023-02-19T04:53:48;10.80;99.90
8824;DHT22;4448;50.904;4.694;2023-02-19T04:56:15;10.80;99.90
8824;DHT22;4448;50.904;4.694;2023-02-19T04:58:42;10.80;99.90
8824;DHT22;4448;50.904;4.694;2023-02-19T05:01:08;10.80;99.90
8824;DHT22;4448;50.904;4.694;2023-02-19T05:03:35;10.80;99.90
8824;DHT22;4448;50.904;4.694;2023-02-19T05:06:04;10.80;99.90
8824;DHT22;4448;50.904;4.694;2023-02-19T05:08:31;10.80;99.90
8824;DHT22;4448;50.904;4.694;2023-02-19T05:10:58;10.80;99.90
8824;DHT22;4448;50.904;4.694;2023-02-19T05:13:25;10.80;99.90
8824;DHT22;4448;50.904;4.694;2023-02-19T05:16:11;10.80;99.90
8824;DHT22;4448;50.904;4.694;2023-02-19T05:18:39;10.80;99.90
8824;DHT22;4448;50.904;4.694;2023-02-19T05:21:05;10.80;99.90
8824;DHT22;4448;50.904;4.694;2023-02-19T05:23:30;10.80;99.90
8824;DHT22;4448;50.904;4.694;2023-02-19T05:25:56;10.80;99.90
8824;DHT22;4448;50.904;4.694;2023-02-19T05:28:22;10.80;99.90
8824;DHT22;4448;50.904;4.694;2023-02-19T05:30:54;10.80;99.90
8824;DHT22;4448;50.904;4.694;2023-02-19T05:33:23;10.80;99.90
8824;DHT22;4448;50.904;4.694;2023-02-19T05:35:51;10.80;99.90
8824;DHT22;4448;50.904;4.694;2023-02-19T05:38:18;10.80;99.90
8824;DHT22;4448;50.904;4.694;2023-02-19T05:40:44;10.80;99.90
8824;DHT22;4448;50.904;4.694;2023-02-19T05:43:11;10.80;99.90
8824;DHT22;4448;50.904;4.694;2023-02-19T05:45:37;10.80;99.90
8824;DHT22;4448;50.904;4.694;2023-02-19T05:48:04;10.70;99.90
8824;DHT22;4448;50.904;4.694;2023-02-19T05:50:31;10.80;99.90
8824;DHT22;4448;50.904;4.694;2023-02-19T05:52:59;10.80;99.90
8824;DHT22;4448;50.904;4.694;2023-02-19T05:55:25;10.80;99.90
8824;DHT22;4448;50.904;4.694;2023-02-19T05:57:51;10.80;99.90
8824;DHT22;4448;50.904;4.694;2023-02-19T06:00:18;10.80;99.90
8824;DHT22;4448;50.904;4.694;2023-02-19T06:02:45;10.80;99.90
8824;DHT22;4448;50.904;4.694;2023-02-19T06:05:11;10.80;99.90
8824;DHT22;4448;50.904;4.694;2023-02-19T06:07:37;10.70;99.90
8824;DHT22;4448;50.904;4.694;2023-02-19T06:10:06;10.70;99.90
8824;DHT22;4448;50.904;4.694;2023-02-19T06:12:32;10.80;99.90
8824;DHT22;4448;50.904;4.694;2023-02-19T06:14:58;11.00;99.90
8824;DHT22;4448;50.904;4.694;2023-02-19T06:17:23;10.70;99.90
8824;DHT22;4448;50.904;4.694;2023-02-19T06:19:49;10.70;99.90
8824;DHT22;4448;50.904;4.694;2023-02-19T06:22:15;10.70;99.90
8824;DHT22;4448;50.904;4.694;2023-02-19T06:24:41;10.80;99.90
8824;DHT22;4448;50.904;4.694;2023-02-19T06:27:07;10.70;99.90
8824;DHT22;4448;50.904;4.694;2023-02-19T06:29:33;10.70;99.90
8824;DHT22;4448;50.904;4.694;2023-02-19T06:32:03;10.70;99.90
8824;DHT22;4448;50.904;4.694;2023-02-19T06:34:29;10.70;99.90
8824;DHT22;4448;50.904;4.694;2023-02-19T06:36:55;10.70;99.90
8824;DHT22;4448;50.904;4.694;2023-02-19T06:39:20;10.70;99.90
8824;DHT22;4448;50.904;4.694;2023-02-19T06:41:46;10.70;99.90
8824;DHT22;4448;50.904;4.694;2023-02-19T06:44:12;10.70;99.90
8824;DHT22;4448;50.904;4.694;2023-02-19T06:46:37;10.70;99.90
8824;DHT22;4448;50.904;4.694;2023-02-19T06:49:04;10.70;99.90
8824;DHT22;4448;50.904;4.694;2023-02-19T06:51:29;10.70;99.90
8824;DHT22;4448;50.904;4.694;2023-02-19T06:53:57;10.70;99.90
8824;DHT22;4448;50.904;4.694;2023-02-19T06:56:30;10.70;99.90
8824;DHT22;4448;50.904;4.694;2023-02-19T06:58:58;10.70;99.90
8824;DHT22;4448;50.904;4.694;2023-02-19T07:01:24;10.70;99.90
8824;DHT22;4448;50.904;4.694;2023-02-19T07:03:51;10.70;99.90
8824;DHT22;4448;50.904;4.694;2023-02-19T07:06:18;10.70;99.90
8824;DHT22;4448;50.904;4.694;2023-02-19T07:08:44;10.70;99.90
8824;DHT22;4448;50.904;4.694;2023-02-19T07:11:10;10.70;99.90
8824;DHT22;4448;50.904;4.694;2023-02-19T07:13:35;10.70;99.90
8824;DHT22;4448;50.904;4.694;2023-02-19T07:16:04;10.70;99.90
8824;DHT22;4448;50.904;4.694;2023-02-19T07:18:32;10.70;99.90
8824;DHT22;4448;50.904;4.694;2023-02-19T07:21:06;10.70;99.90
8824;DHT22;4448;50.904;4.694;2023-02-19T07:23:32;10.70;99.90
8824;DHT22;4448;50.904;4.694;2023-02-19T07:25:58;10.70;99.90
8824;DHT22;4448;50.904;4.694;2023-02-19T07:28:24;10.70;99.90
8824;DHT22;4448;50.904;4.694;2023-02-19T07:30:50;10.70;99.90
8824;DHT22;4448;50.904;4.694;2023-02-19T07:33:15;10.70;99.90
8824;DHT22;4448;50.904;4.694;2023-02-19T07:35:48;10.70;99.90
8824;DHT22;4448;50.904;4.694;2023-02-19T07:38:16;10.70;99.90
8824;DHT22;4448;50.904;4.694;2023-02-19T07:40:41;10.80;99.90
8824;DHT22;4448;50.904;4.694;2023-02-19T07:43:07;10.80;99.90
8824;DHT22;4448;50.904;4.694;2023-02-19T07:45:32;10.80;99.90
8824;DHT22;4448;50.904;4.694;2023-02-19T07:47:58;10.80;99.90
8824;DHT22;4448;50.904;4.694;2023-02-19T07:50:24;10.80;99.90
8824;DHT22;4448;50.904;4.694;2023-02-19T07:52:49;10.80;99.90
8824;DHT22;4448;50.904;4.694;2023-02-19T07:55:15;10.80;99.90
8824;DHT22;4448;50.904;4.694;2023-02-19T07:57:41;10.80;99.90
8824;DHT22;4448;50.904;4.694;2023-02-19T08:00:06;10.30;99.90
8824;DHT22;4448;50.904;4.694;2023-02-19T08:02:32;10.80;99.90
8824;DHT22;4448;50.904;4.694;2023-02-19T08:05:17;10.80;99.90
8824;DHT22;4448;50.904;4.694;2023-02-19T08:07:42;10.80;99.90
8824;DHT22;4448;50.904;4.694;2023-02-19T08:10:08;10.80;99.90
8824;DHT22;4448;50.904;4.694;2023-02-19T08:12:59;10.80;99.90
8824;DHT22;4448;50.904;4.694;2023-02-19T08:18:29;10.80;99.90
8824;DHT22;4448;50.904;4.694;2023-02-19T08:20:55;10.80;99.90
8824;DHT22;4448;50.904;4.694;2023-02-19T08:23:21;10.80;99.90
8824;DHT22;4448;50.904;4.694;2023-02-19T08:25:48;10.80;99.90
8824;DHT22;4448;50.904;4.694;2023-02-19T08:28:15;10.80;99.90
8824;DHT22;4448;50.904;4.694;2023-02-19T08:30:43;10.80;99.90
8824;DHT22;4448;50.904;4.694;2023-02-19T08:33:11;10.80;99.90
8824;DHT22;4448;50.904;4.694;2023-02-19T08:35:37;10.80;99.90
8824;DHT22;4448;50.904;4.694;2023-02-19T08:38:04;10.80;99.90
8824;DHT22;4448;50.904;4.694;2023-02-19T08:40:30;10.80;99.90
8824;DHT22;4448;50.904;4.694;2023-02-19T08:43:11;10.80;99.90
8824;DHT22;4448;50.904;4.694;2023-02-19T08:45:37;10.80;99.90
8824;DHT22;4448;50.904;4.694;2023-02-19T08:48:04;10.80;99.90
8824;DHT22;4448;50.904;4.694;2023-02-19T08:50:33;10.80;99.90
8824;DHT22;4448;50.904;4.694;2023-02-19T08:53:01;10.80;99.90
8824;DHT22;4448;50.904;4.694;2023-02-19T08:55:29;10.80;99.90
8824;DHT22;4448;50.904;4.694;2023-02-19T08:57:56;10.80;99.90
8824;DHT22;4448;50.904;4.694;2023-02-19T09:00:24;10.80;99.90
8824;DHT22;4448;50.904;4.694;2023-02-19T09:02:57;10.80;99.90
8824;DHT22;4448;50.904;4.694;2023-02-19T09:05:25;10.80;99.90
8824;DHT22;4448;50.904;4.694;2023-02-19T09:07:55;10.80;99.90
8824;DHT22;4448;50.904;4.694;2023-02-19T09:10:21;10.80;99.90
8824;DHT22;4448;50.904;4.694;2023-02-19T09:12:48;10.80;99.90
8824;DHT22;4448;50.904;4.694;2023-02-19T09:15:14;10.80;99.90
8824;DHT22;4448;50.904;4.694;2023-02-19T09:17:42;10.80;99.90
8824;DHT22;4448;50.904;4.694;2023-02-19T09:20:13;10.80;99.90
8824;DHT22;4448;50.904;4.694;2023-02-19T09:22:46;10.80;99.90
8824;DHT22;4448;50.904;4.694;2023-02-19T09:25:15;10.80;99.90
8824;DHT22;4448;50.904;4.694;2023-02-19T09:27:41;10.80;99.90
8824;DHT22;4448;50.904;4.694;2023-02-19T09:30:12;10.80;99.90
8824;DHT22;4448;50.904;4.694;2023-02-19T09:32:40;10.90;99.90
8824;DHT22;4448;50.904;4.694;2023-02-19T09:35:08;10.90;99.90
8824;DHT22;4448;50.904;4.694;2023-02-19T09:37:36;10.90;99.90
8824;DHT22;4448;50.904;4.694;2023-02-19T09:40:03;10.90;99.90
8824;DHT22;4448;50.904;4.694;2023-02-19T09:42:31;11.00;99.90
8824;DHT22;4448;50.904;4.694;2023-02-19T09:45:03;11.00;99.90
8824;DHT22;4448;50.904;4.694;2023-02-19T09:47:31;11.00;99.90
8824;DHT22;4448;50.904;4.694;2023-02-19T09:50:05;11.00;99.90
8824;DHT22;4448;50.904;4.694;2023-02-19T09:52:50;11.00;99.90
8824;DHT22;4448;50.904;4.694;2023-02-19T09:55:38;11.10;99.90
8824;DHT22;4448;50.904;4.694;2023-02-19T10:01:16;11.10;99.90
8824;DHT22;4448;50.904;4.694;2023-02-19T10:03:46;11.10;99.90
8824;DHT22;4448;50.904;4.694;2023-02-19T10:06:30;11.10;99.90
8824;DHT22;4448;50.904;4.694;2023-02-19T10:09:18;11.20;99.90
8824;DHT22;4448;50.904;4.694;2023-02-19T10:11:47;11.20;99.90
8824;DHT22;4448;50.904;4.694;2023-02-19T10:14:43;11.20;99.90
8824;DHT22;4448;50.904;4.694;2023-02-19T10:17:23;11.20;99.90
8824;DHT22;4448;50.904;4.694;2023-02-19T10:19:52;11.20;99.90
8824;DHT22;4448;50.904;4.694;2023-02-19T10:22:19;11.20;99.90
8824;DHT22;4448;50.904;4.694;2023-02-19T10:24:52;11.20;99.90
8824;DHT22;4448;50.904;4.694;2023-02-19T10:27:28;11.30;99.90
8824;DHT22;4448;50.904;4.694;2023-02-19T10:29:59;11.30;99.90
8824;DHT22;4448;50.904;4.694;2023-02-19T10:32:27;11.30;99.90
8824;DHT22;4448;50.904;4.694;2023-02-19T10:35:14;11.30;99.90
8824;DHT22;4448;50.904;4.694;2023-02-19T10:37:42;11.40;99.90
8824;DHT22;4448;50.904;4.694;2023-02-19T10:40:16;11.40;99.90
8824;DHT22;4448;50.904;4.694;2023-02-19T10:42:48;11.40;99.90
8824;DHT22;4448;50.904;4.694;2023-02-19T10:48:27;11.50;99.90
8824;DHT22;4448;50.904;4.694;2023-02-19T10:50:58;11.50;99.90
8824;DHT22;4448;50.904;4.694;2023-02-19T10:56:33;11.50;99.90
8824;DHT22;4448;50.904;4.694;2023-02-19T10:59:25;11.50;99.90
8824;DHT22;4448;50.904;4.694;2023-02-19T11:02:03;11.60;99.90
8824;DHT22;4448;50.904;4.694;2023-02-19T11:07:48;11.60;99.90
8824;DHT22;4448;50.904;4.694;2023-02-19T11:13:05;11.60;99.90
8824;DHT22;4448;50.904;4.694;2023-02-19T11:15:36;11.70;99.90
8824;DHT22;4448;50.904;4.694;2023-02-19T11:18:29;11.70;99.90
8824;DHT22;4448;50.904;4.694;2023-02-19T11:21:01;11.70;99.90
8824;DHT22;4448;50.904;4.694;2023-02-19T11:23:29;11.70;99.90
8824;DHT22;4448;50.904;4.694;2023-02-19T11:25:58;11.70;99.90
8824;DHT22;4448;50.904;4.694;2023-02-19T11:28:39;11.70;99.90
8824;DHT22;4448;50.904;4.694;2023-02-19T11:33:54;11.70;99.90
8824;DHT22;4448;50.904;4.694;2023-02-19T11:36:24;11.70;99.90
8824;DHT22;4448;50.904;4.694;2023-02-19T11:38:55;11.70;99.90
8824;DHT22;4448;50.904;4.694;2023-02-19T11:44:11;11.70;99.90
8824;DHT22;4448;50.904;4.694;2023-02-19T11:47:03;11.70;99.90
8824;DHT22;4448;50.904;4.694;2023-02-19T11:49:50;11.80;99.90
8824;DHT22;4448;50.904;4.694;2023-02-19T11:55:29;11.80;99.90
8824;DHT22;4448;50.904;4.694;2023-02-19T11:58:28;11.80;99.90
8824;DHT22;4448;50.904;4.694;2023-02-19T12:01:11;11.80;99.90
8824;DHT22;4448;50.904;4.694;2023-02-19T12:06:54;11.70;99.90
8824;DHT22;4448;50.904;4.694;2023-02-19T12:09:45;11.70;99.90
8824;DHT22;4448;50.904;4.694;2023-02-19T12:13:21;11.70;99.90
8824;DHT22;4448;50.904;4.694;2023-02-19T12:21:04;11.70;99.90
8824;DHT22;4448;50.904;4.694;2023-02-19T12:26:29;11.70;99.90
8824;DHT22;4448;50.904;4.694;2023-02-19T12:29:01;11.70;99.90
8824;DHT22;4448;50.904;4.694;2023-02-19T12:31:36;11.70;99.90
8824;DHT22;4448;50.904;4.694;2023-02-19T12:34:17;11.70;99.90
8824;DHT22;4448;50.904;4.694;2023-02-19T12:39:46;11.70;99.90
8824;DHT22;4448;50.904;4.694;2023-02-19T12:45:21;11.70;99.90
8824;DHT22;4448;50.904;4.694;2023-02-19T12:48:09;11.70;99.90
8824;DHT22;4448;50.904;4.694;2023-02-19T12:50:39;11.70;99.90
8824;DHT22;4448;50.904;4.694;2023-02-19T12:55:45;11.70;99.90
8824;DHT22;4448;50.904;4.694;2023-02-19T12:58:27;11.70;99.90
8824;DHT22;4448;50.904;4.694;2023-02-19T13:00:55;11.70;99.90
8824;DHT22;4448;50.904;4.694;2023-02-19T13:03:31;11.70;99.90
8824;DHT22;4448;50.904;4.694;2023-02-19T13:09:19;11.70;99.90
8824;DHT22;4448;50.904;4.694;2023-02-19T13:11:57;11.70;99.90
8824;DHT22;4448;50.904;4.694;2023-02-19T13:14:53;11.60;99.90
8824;DHT22;4448;50.904;4.694;2023-02-19T13:20:20;11.60;99.90
8824;DHT22;4448;50.904;4.694;2023-02-19T13:32:15;11.60;99.90
8824;DHT22;4448;50.904;4.694;2023-02-19T13:37:26;12.10;99.90
8824;DHT22;4448;50.904;4.694;2023-02-19T13:39:53;11.70;99.90
8824;DHT22;4448;50.904;4.694;2023-02-19T13:42:34;11.70;99.90
8824;DHT22;4448;50.904;4.694;2023-02-19T13:45:04;11.70;99.90
8824;DHT22;4448;50.904;4.694;2023-02-19T13:50:26;11.60;99.90
8824;DHT22;4448;50.904;4.694;2023-02-19T13:52:57;11.70;99.90
8824;DHT22;4448;50.904;4.694;2023-02-19T13:58:33;11.70;99.90
8824;DHT22;4448;50.904;4.694;2023-02-19T14:06:03;11.60;99.90
8824;DHT22;4448;50.904;4.694;2023-02-19T14:08:55;11.60;99.90
8824;DHT22;4448;50.904;4.694;2023-02-19T14:16:55;11.60;99.90
8824;DHT22;4448;50.904;4.694;2023-02-19T14:25:44;11.50;99.90
8824;DHT22;4448;50.904;4.694;2023-02-19T14:28:35;11.50;99.90
8824;DHT22;4448;50.904;4.694;2023-02-19T14:31:09;11.50;99.90
8824;DHT22;4448;50.904;4.694;2023-02-19T14:33:42;11.50;99.90
8824;DHT22;4448;50.904;4.694;2023-02-19T14:38:58;11.40;99.90
8824;DHT22;4448;50.904;4.694;2023-02-19T14:41:25;11.40;99.90
8824;DHT22;4448;50.904;4.694;2023-02-19T14:43:53;11.40;99.90
8824;DHT22;4448;50.904;4.694;2023-02-19T14:46:33;11.40;99.90
8824;DHT22;4448;50.904;4.694;2023-02-19T14:49:29;11.40;99.90
8824;DHT22;4448;50.904;4.694;2023-02-19T14:51:59;11.40;99.90
8824;DHT22;4448;50.904;4.694;2023-02-19T14:54:51;11.40;99.90
8824;DHT22;4448;50.904;4.694;2023-02-19T14:57:28;11.40;99.90
8824;DHT22;4448;50.904;4.694;2023-02-19T14:59:59;11.30;99.90
8824;DHT22;4448;50.904;4.694;2023-02-19T15:02:30;11.30;99.90
8824;DHT22;4448;50.904;4.694;2023-02-19T15:04:57;11.30;99.90
8824;DHT22;4448;50.904;4.694;2023-02-19T15:07:26;11.20;99.90
8824;DHT22;4448;50.904;4.694;2023-02-19T15:09:56;11.20;99.90
8824;DHT22;4448;50.904;4.694;2023-02-19T15:12:29;11.10;99.90
8824;DHT22;4448;50.904;4.694;2023-02-19T15:14:59;11.10;99.90
8824;DHT22;4448;50.904;4.694;2023-02-19T15:17:28;11.10;99.90
8824;DHT22;4448;50.904;4.694;2023-02-19T15:19:56;11.10;99.90
8824;DHT22;4448;50.904;4.694;2023-02-19T15:22:24;11.10;99.90
8824;DHT22;4448;50.904;4.694;2023-02-19T15:24:53;11.00;99.90
8824;DHT22;4448;50.904;4.694;2023-02-19T15:27:22;11.00;99.90
8824;DHT22;4448;50.904;4.694;2023-02-19T15:29:51;11.00;99.90
8824;DHT22;4448;50.904;4.694;2023-02-19T15:32:24;11.10;99.90
8824;DHT22;4448;50.904;4.694;2023-02-19T15:35:03;11.10;99.90
8824;DHT22;4448;50.904;4.694;2023-02-19T15:37:32;11.10;99.90
8824;DHT22;4448;50.904;4.694;2023-02-19T15:40:03;11.10;99.90
8824;DHT22;4448;50.904;4.694;2023-02-19T15:42:33;11.10;99.90
8824;DHT22;4448;50.904;4.694;2023-02-19T15:45:04;11.10;99.90
8824;DHT22;4448;50.904;4.694;2023-02-19T15:47:51;11.10;99.90
8824;DHT22;4448;50.904;4.694;2023-02-19T15:53:07;11.10;99.90
8824;DHT22;4448;50.904;4.694;2023-02-19T15:55:41;11.00;99.90
8824;DHT22;4448;50.904;4.694;2023-02-19T15:58:35;11.00;99.90
8824;DHT22;4448;50.904;4.694;2023-02-19T16:01:05;11.00;99.90
8824;DHT22;4448;50.904;4.694;2023-02-19T16:03:35;10.90;99.90
8824;DHT22;4448;50.904;4.694;2023-02-19T16:06:12;10.90;99.90
8824;DHT22;4448;50.904;4.694;2023-02-19T16:09:00;10.90;99.90
8824;DHT22;4448;50.904;4.694;2023-02-19T16:22:20;10.80;99.90
8824;DHT22;4448;50.904;4.694;2023-02-19T16:24:48;10.80;99.90
8824;DHT22;4448;50.904;4.694;2023-02-19T16:27:34;10.70;99.90
8824;DHT22;4448;50.904;4.694;2023-02-19T16:32:31;10.70;99.90
8824;DHT22;4448;50.904;4.694;2023-02-19T16:34:56;10.70;99.90
8824;DHT22;4448;50.904;4.694;2023-02-19T16:37:39;10.60;99.90
8824;DHT22;4448;50.904;4.694;2023-02-19T16:45:56;10.60;99.90
8824;DHT22;4448;50.904;4.694;2023-02-19T16:48:22;10.60;99.90
8824;DHT22;4448;50.904;4.694;2023-02-19T16:50:49;10.60;99.90
8824;DHT22;4448;50.904;4.694;2023-02-19T16:53:20;10.50;99.90
8824;DHT22;4448;50.904;4.694;2023-02-19T16:55:47;10.50;99.90
8824;DHT22;4448;50.904;4.694;2023-02-19T16:58:13;10.60;99.90
8824;DHT22;4448;50.904;4.694;2023-02-19T17:00:39;10.50;99.90
8824;DHT22;4448;50.904;4.694;2023-02-19T17:03:14;10.50;99.90
8824;DHT22;4448;50.904;4.694;2023-02-19T17:05:40;10.50;99.90
8824;DHT22;4448;50.904;4.694;2023-02-19T17:08:31;10.50;99.90
8824;DHT22;4448;50.904;4.694;2023-02-19T17:10:59;10.50;99.90
8824;DHT22;4448;50.904;4.694;2023-02-19T17:13:27;10.50;99.90
8824;DHT22;4448;50.904;4.694;2023-02-19T17:15:52;10.50;99.90
8824;DHT22;4448;50.904;4.694;2023-02-19T17:18:18;10.50;99.90
8824;DHT22;4448;50.904;4.694;2023-02-19T17:20:49;10.40;99.90
8824;DHT22;4448;50.904;4.694;2023-02-19T17:23:15;10.50;99.90
8824;DHT22;4448;50.904;4.694;2023-02-19T17:25:41;10.50;99.90
8824;DHT22;4448;50.904;4.694;2023-02-19T17:28:07;10.40;99.90
8824;DHT22;4448;50.904;4.694;2023-02-19T17:30:33;10.40;99.90
8824;DHT22;4448;50.904;4.694;2023-02-19T17:32:58;10.40;99.90
8824;DHT22;4448;50.904;4.694;2023-02-19T17:35:24;10.40;99.90
8824;DHT22;4448;50.904;4.694;2023-02-19T17:37:50;10.40;99.90
8824;DHT22;4448;50.904;4.694;2023-02-19T17:40:24;10.40;99.90
8824;DHT22;4448;50.904;4.694;2023-02-19T17:42:50;10.40;99.90
8824;DHT22;4448;50.904;4.694;2023-02-19T17:45:16;10.40;99.90
8824;DHT22;4448;50.904;4.694;2023-02-19T17:47:41;10.40;99.90
8824;DHT22;4448;50.904;4.694;2023-02-19T17:50:13;10.40;99.90
8824;DHT22;4448;50.904;4.694;2023-02-19T17:52:40;10.40;99.90
8824;DHT22;4448;50.904;4.694;2023-02-19T17:55:05;10.90;99.90
8824;DHT22;4448;50.904;4.694;2023-02-19T17:57:31;10.40;99.90
8824;DHT22;4448;50.904;4.694;2023-02-19T17:59:58;10.40;99.90
8824;DHT22;4448;50.904;4.694;2023-02-19T18:02:24;10.40;99.90
8824;DHT22;4448;50.904;4.694;2023-02-19T18:04:50;10.40;99.90
8824;DHT22;4448;50.904;4.694;2023-02-19T18:07:15;10.30;99.90
8824;DHT22;4448;50.904;4.694;2023-02-19T18:09:41;10.40;99.90
8824;DHT22;4448;50.904;4.694;2023-02-19T18:12:07;10.40;99.90
8824;DHT22;4448;50.904;4.694;2023-02-19T18:14:33;10.40;99.90
8824;DHT22;4448;50.904;4.694;2023-02-19T18:16:58;10.40;99.90
8824;DHT22;4448;50.904;4.694;2023-02-19T18:19:24;10.40;99.90
8824;DHT22;4448;50.904;4.694;2023-02-19T18:21:50;10.30;99.90
8824;DHT22;4448;50.904;4.694;2023-02-19T18:24:16;10.40;99.90
8824;DHT22;4448;50.904;4.694;2023-02-19T18:26:42;10.40;99.90
8824;DHT22;4448;50.904;4.694;2023-02-19T18:29:08;10.50;99.90
8824;DHT22;4448;50.904;4.694;2023-02-19T18:31:34;10.30;99.90
8824;DHT22;4448;50.904;4.694;2023-02-19T18:34:02;10.40;99.90
8824;DHT22;4448;50.904;4.694;2023-02-19T18:36:28;10.40;99.90
8824;DHT22;4448;50.904;4.694;2023-02-19T18:38:54;10.40;99.90
8824;DHT22;4448;50.904;4.694;2023-02-19T18:41:19;10.30;99.90
8824;DHT22;4448;50.904;4.694;2023-02-19T18:43:45;10.80;99.90
8824;DHT22;4448;50.904;4.694;2023-02-19T18:46:11;10.30;99.90
8824;DHT22;4448;50.904;4.694;2023-02-19T18:48:38;10.40;99.90
8824;DHT22;4448;50.904;4.694;2023-02-19T18:51:03;10.30;99.90